Terminal Aerodrome Forecast
Issued by NWS

Home | Current Version | Previous Version | Text Only | Print | Product List | Glossary On
Versions: 1 2 3 4 5 6 7 8 9 10 11 12 13 14 15 16 17
372
FTUS41 KPHI 130525
TAFMIV
TAF
KMIV 130525Z 1306/1406 29020G33KT P6SM SKC
     FM132200 27010KT P6SM BKN090
     FM140200 23006KT P6SM OVC050=

USA.gov is the U.S. government's official web portal to all federal, state and local government web resources and services.